West Andover, Ohio
Current Conditions -  °F | °C
As of 3:05 PM on Thursday 23 Oct 2014 (Local Time) from KHZY Reporting Station
Broken Clouds Broken Clouds  
Wind Chill: 13°   Ceiling: 2600
Heat Index: 13°   Visibility: 10mi
Dew Point:   Wind: 10mph
Humidity: 67%   Direction: 320°NW
Pressure: 30.14"   Gusts: NA
Location:  41.6317°N, 80.577°W
Report Text: KHZY 231905Z AUTO 32009KT 10SM BKN026 13/07 A3014 RMK AO2 T01280067
Loading
Personal Weather Stations






























Interactive Weather Map
Tropical Storm Tracking
New forecast layout! Learn more

10-Day Weather Forecast

Advertisements
Track Severe Weather on mobile